Time;durP1;ratioP1;P1;durP2;ratioP2;P2;SDS_P1;SDS_P2;PMS_P1;PMS_P2;Temp;Humidity;BMP_temperature;BMP_pressure;BME280_temperature;BME280_humidity;BME280_pressure;Samples;Min_cycle;Max_cycle;Signal;HPM_P1;HPM_P2
2022/08/28 00:01:07;;;;;;;;;;;27.10;95.00;;;;;;5084340;28;19912;-54
2022/08/28 00:03:34;;;;;;;;;;;27.00;95.10;;;;;;5084239;28;20147;-54
2022/08/28 00:06:01;;;;;;;;;;;27.00;95.10;;;;;;5083970;28;19909;-54
2022/08/28 00:08:29;;;;;;;;;;;27.10;95.10;;;;;;5083602;28;19996;-57
2022/08/28 00:10:55;;;;;;;;;;;27.10;95.10;;;;;;5084257;28;19919;-54
2022/08/28 00:13:24;;;;;;;;;;;27.10;95.20;;;;;;5083659;28;19916;-57
2022/08/28 00:15:53;;;;;;;;;;;27.10;95.20;;;;;;5083803;28;19934;-53
2022/08/28 00:18:19;;;;;;;;;;;27.10;95.20;;;;;;5083639;28;19912;-55
2022/08/28 00:20:46;;;;;;;;;;;27.00;95.10;;;;;;5084150;28;19928;-54
2022/08/28 00:23:13;;;;;;;;;;;27.00;95.10;;;;;;5083709;28;19904;-54
2022/08/28 00:25:39;;;;;;;;;;;27.10;95.10;;;;;;5083963;28;19909;-56
2022/08/28 00:28:08;;;;;;;;;;;27.00;95.10;;;;;;5083453;28;19919;-55
2022/08/28 00:30:40;;;;;;;;;;;27.00;95.00;;;;;;5084075;28;19944;-55
2022/08/28 00:33:24;;;;;;;;;;;27.10;95.00;;;;;;5085546;28;20196;-54
2022/08/28 00:35:51;;;;;;;;;;;27.10;95.10;;;;;;5087752;28;19975;-55
2022/08/28 00:38:18;;;;;;;;;;;27.10;95.20;;;;;;5087373;28;19916;-54
2022/08/28 00:40:45;;;;;;;;;;;27.10;95.10;;;;;;5087648;28;19924;-56
2022/08/28 00:43:24;;;;;;;;;;;27.10;95.20;;;;;;5087429;28;19904;-59
2022/08/28 00:45:50;;;;;;;;;;;27.10;95.30;;;;;;5087616;28;19913;-56
2022/08/28 00:48:16;;;;;;;;;;;27.00;95.10;;;;;;5087263;28;19908;-55
2022/08/28 00:53:30;;;;;;;;;;;27.10;95.20;;;;;;5080986;28;20007;-53
2022/08/28 00:55:57;;;;;;;;;;;27.00;95.20;;;;;;5087548;28;19912;-52
2022/08/28 00:58:23;;;;;;;;;;;27.00;95.20;;;;;;5086996;28;19904;-53
2022/08/28 01:00:49;;;;;;;;;;;27.00;95.20;;;;;;5069280;28;19913;-56
2022/08/28 01:03:15;;;;;;;;;;;27.10;95.20;;;;;;5086938;28;19908;-56
2022/08/28 01:05:43;;;;;;;;;;;27.00;95.30;;;;;;5087353;28;19913;-54
2022/08/28 01:08:09;;;;;;;;;;;27.00;95.40;;;;;;5086836;28;20216;-55
2022/08/28 01:10:35;;;;;;;;;;;27.00;95.40;;;;;;5087320;28;19976;-57
2022/08/28 01:13:02;;;;;;;;;;;27.00;95.40;;;;;;5086797;28;19917;-55
2022/08/28 01:15:30;;;;;;;;;;;27.00;95.40;;;;;;5078733;28;19913;-53
2022/08/28 01:17:58;;;;;;;;;;;27.00;95.30;;;;;;5086744;28;20086;-52
2022/08/28 01:20:27;;;;;;;;;;;26.90;95.30;;;;;;5087045;28;19912;-55
2022/08/28 01:22:57;;;;;;;;;;;27.00;95.40;;;;;;5086714;28;19996;-56
2022/08/28 01:25:26;;;;;;;;;;;27.00;95.40;;;;;;5086859;28;19913;-56
2022/08/28 01:27:52;;;;;;;;;;;27.00;95.40;;;;;;5086239;28;19912;-55
2022/08/28 01:30:20;;;;;;;;;;;26.90;95.50;;;;;;5086760;28;19912;-54
2022/08/28 01:32:48;;;;;;;;;;;26.90;95.50;;;;;;5086295;28;19923;-55
2022/08/28 01:35:18;;;;;;;;;;;26.90;95.50;;;;;;5086600;28;20093;-53
2022/08/28 01:37:44;;;;;;;;;;;26.90;95.50;;;;;;5086371;28;19915;-53
2022/08/28 01:40:12;;;;;;;;;;;26.90;95.60;;;;;;5086526;28;19919;-53
2022/08/28 01:42:40;;;;;;;;;;;26.90;95.50;;;;;;5086143;28;19975;-54
2022/08/28 01:45:07;;;;;;;;;;;26.90;95.50;;;;;;5086346;28;19947;-54
2022/08/28 01:47:33;;;;;;;;;;;26.90;95.50;;;;;;5086141;28;19913;-59
2022/08/28 01:50:02;;;;;;;;;;;26.90;95.40;;;;;;5086334;28;20230;-53
2022/08/28 01:52:30;;;;;;;;;;;26.90;95.30;;;;;;5085930;28;20155;-56
2022/08/28 01:54:56;;;;;;;;;;;26.90;95.20;;;;;;5086218;28;19909;-56
2022/08/28 01:57:22;;;;;;;;;;;26.90;95.20;;;;;;5085919;28;19908;-53
2022/08/28 01:59:49;;;;;;;;;;;26.90;95.30;;;;;;5086042;28;19912;-54
2022/08/28 02:02:16;;;;;;;;;;;26.80;95.30;;;;;;5085800;28;19946;-56
2022/08/28 02:04:42;;;;;;;;;;;26.80;95.30;;;;;;5085964;28;19912;-53
2022/08/28 02:07:08;;;;;;;;;;;26.80;95.30;;;;;;5085595;28;19996;-54
2022/08/28 02:09:35;;;;;;;;;;;26.80;95.30;;;;;;5085868;28;19912;-53
2022/08/28 02:12:02;;;;;;;;;;;26.80;95.20;;;;;;5085585;28;19909;-58
2022/08/28 02:14:28;;;;;;;;;;;26.80;95.20;;;;;;5085662;28;19962;-53
2022/08/28 02:16:55;;;;;;;;;;;26.80;95.10;;;;;;5085545;28;19916;-56
2022/08/28 02:19:23;;;;;;;;;;;26.80;94.90;;;;;;5085587;28;19916;-53
2022/08/28 02:21:49;;;;;;;;;;;26.80;94.90;;;;;;5085402;28;20245;-51
2022/08/28 02:24:15;;;;;;;;;;;26.70;94.80;;;;;;5085472;28;19908;-53
2022/08/28 02:26:43;;;;;;;;;;;26.70;94.80;;;;;;5085241;28;20232;-56
2022/08/28 02:29:10;;;;;;;;;;;26.60;94.80;;;;;;5085165;28;19913;-53
2022/08/28 02:31:36;;;;;;;;;;;26.60;94.80;;;;;;5085339;28;20185;-53
2022/08/28 02:34:03;;;;;;;;;;;26.60;94.80;;;;;;5085341;28;19946;-58
2022/08/28 02:36:29;;;;;;;;;;;26.60;94.80;;;;;;5084972;28;20164;-54
2022/08/28 02:38:55;;;;;;;;;;;26.60;94.70;;;;;;5085142;28;19904;-57
2022/08/28 02:41:22;;;;;;;;;;;26.60;94.80;;;;;;5085077;28;19916;-53
2022/08/28 02:43:48;;;;;;;;;;;26.60;94.90;;;;;;5084789;28;19905;-52
2022/08/28 02:46:15;;;;;;;;;;;26.60;94.90;;;;;;5081386;28;20112;-56
2022/08/28 02:48:41;;;;;;;;;;;26.60;95.00;;;;;;5103776;28;19939;-55
2022/08/28 02:51:08;;;;;;;;;;;26.60;95.00;;;;;;5096201;28;20078;-53
2022/08/28 02:53:35;;;;;;;;;;;26.60;95.20;;;;;;5093523;28;19908;-53
2022/08/28 02:56:01;;;;;;;;;;;26.60;95.30;;;;;;5100699;28;19968;-55
2022/08/28 02:58:31;;;;;;;;;;;26.60;95.40;;;;;;5098682;28;19930;-51
2022/08/28 03:01:01;;;;;;;;;;;26.60;95.40;;;;;;5100057;28;19958;-54
2022/08/28 03:03:29;;;;;;;;;;;26.60;95.40;;;;;;5104160;28;19908;-52
2022/08/28 03:05:56;;;;;;;;;;;26.60;95.50;;;;;;5101666;28;19979;-57
2022/08/28 03:08:23;;;;;;;;;;;26.60;95.50;;;;;;5099658;28;19912;-55
2022/08/28 03:10:49;;;;;;;;;;;26.60;95.50;;;;;;5092951;28;19920;-55
2022/08/28 03:13:16;;;;;;;;;;;26.50;95.30;;;;;;5084318;28;19984;-52
2022/08/28 03:15:46;;;;;;;;;;;26.60;95.40;;;;;;5085925;28;19954;-52
2022/08/28 03:18:12;;;;;;;;;;;26.60;95.50;;;;;;5104905;28;20189;-52
2022/08/28 03:20:38;;;;;;;;;;;26.60;95.50;;;;;;5104967;28;19919;-52
2022/08/28 03:25:51;;;;;;;;;;;26.60;95.40;;;;;;5100690;28;19949;-51
2022/08/28 03:28:17;;;;;;;;;;;26.60;95.40;;;;;;5104868;28;19918;-55
2022/08/28 03:30:43;;;;;;;;;;;26.50;95.40;;;;;;5105093;28;19920;-53
2022/08/28 03:33:09;;;;;;;;;;;26.50;95.50;;;;;;5104494;28;19904;-53
2022/08/28 03:35:39;;;;;;;;;;;26.50;95.50;;;;;;5093658;28;19919;-54
2022/08/28 03:38:05;;;;;;;;;;;26.50;95.50;;;;;;5084269;28;20011;-53
2022/08/28 03:40:31;;;;;;;;;;;26.50;95.50;;;;;;5084585;28;19913;-55
2022/08/28 03:42:57;;;;;;;;;;;26.50;95.50;;;;;;5096130;28;19908;-53
2022/08/28 03:45:23;;;;;;;;;;;26.50;95.30;;;;;;5104931;28;19931;-52
2022/08/28 03:47:49;;;;;;;;;;;26.50;95.20;;;;;;5093626;28;20168;-57
2022/08/28 03:50:16;;;;;;;;;;;26.50;95.20;;;;;;5084489;28;19912;-54
2022/08/28 03:52:43;;;;;;;;;;;26.50;95.20;;;;;;5084325;28;19909;-54
2022/08/28 03:55:10;;;;;;;;;;;26.40;95.20;;;;;;5084443;28;20221;-52
2022/08/28 03:57:37;;;;;;;;;;;26.50;95.20;;;;;;5084171;28;19923;-51
2022/08/28 04:00:05;;;;;;;;;;;26.40;95.10;;;;;;5084310;28;20204;-57
2022/08/28 04:02:31;;;;;;;;;;;26.40;95.10;;;;;;5084099;28;19910;-52
2022/08/28 04:04:58;;;;;;;;;;;26.40;95.00;;;;;;5084453;28;19916;-54
2022/08/28 04:07:24;;;;;;;;;;;26.40;95.10;;;;;;5100619;28;19912;-51
2022/08/28 04:09:50;;;;;;;;;;;26.40;95.10;;;;;;5108670;28;19950;-51
2022/08/28 04:12:17;;;;;;;;;;;26.40;95.10;;;;;;5108317;28;19908;-53
2022/08/28 04:14:43;;;;;;;;;;;26.40;95.10;;;;;;5108347;28;19927;-53
2022/08/28 04:17:09;;;;;;;;;;;26.40;95.20;;;;;;5108357;28;19926;-54
2022/08/28 04:19:36;;;;;;;;;;;26.40;95.10;;;;;;5108390;28;19935;-56
2022/08/28 04:22:03;;;;;;;;;;;26.30;95.10;;;;;;5108534;28;20121;-54
2022/08/28 04:24:29;;;;;;;;;;;26.30;95.20;;;;;;5108362;28;20193;-53
2022/08/28 04:26:55;;;;;;;;;;;26.30;95.30;;;;;;5100581;28;19938;-53
2022/08/28 04:29:22;;;;;;;;;;;26.30;95.30;;;;;;5108139;28;19916;-53
2022/08/28 04:31:48;;;;;;;;;;;26.30;95.30;;;;;;5107922;28;19908;-52
2022/08/28 04:34:14;;;;;;;;;;;26.30;95.40;;;;;;5107547;28;19954;-53
2022/08/28 04:36:41;;;;;;;;;;;26.30;95.40;;;;;;5107881;28;19915;-52
2022/08/28 04:39:09;;;;;;;;;;;26.30;95.50;;;;;;5107948;28;20722;-52
2022/08/28 04:41:36;;;;;;;;;;;26.30;95.70;;;;;;5107685;28;19967;-54
2022/08/28 04:44:02;;;;;;;;;;;26.30;95.50;;;;;;5107728;28;19915;-53
2022/08/28 04:46:28;;;;;;;;;;;26.30;95.50;;;;;;5107850;28;19908;-52
2022/08/28 04:48:55;;;;;;;;;;;26.30;95.40;;;;;;5107577;28;19915;-58
2022/08/28 04:51:21;;;;;;;;;;;26.30;95.40;;;;;;5107904;28;19908;-53
2022/08/28 04:53:47;;;;;;;;;;;26.20;95.40;;;;;;5107555;28;19927;-54
2022/08/28 04:56:14;;;;;;;;;;;26.20;95.50;;;;;;5107528;28;20189;-53
2022/08/28 04:58:41;;;;;;;;;;;26.10;95.40;;;;;;5107448;28;19958;-50
2022/08/28 05:01:12;;;;;;;;;;;26.10;95.50;;;;;;5107885;28;20208;-54
2022/08/28 05:03:39;;;;;;;;;;;26.10;95.50;;;;;;5107373;28;19908;-53
2022/08/28 05:06:05;;;;;;;;;;;26.00;95.40;;;;;;5107934;28;19962;-52
2022/08/28 05:08:32;;;;;;;;;;;26.00;95.40;;;;;;5107257;28;19912;-53
2022/08/28 05:11:09;;;;;;;;;;;25.90;95.30;;;;;;5107615;28;19940;-52
2022/08/28 05:13:36;;;;;;;;;;;25.90;95.20;;;;;;5106458;28;20168;-52
2022/08/28 05:16:03;;;;;;;;;;;25.90;95.10;;;;;;5106457;28;20104;-55
2022/08/28 05:18:29;;;;;;;;;;;26.00;95.10;;;;;;5105520;28;19904;-52
2022/08/28 05:20:56;;;;;;;;;;;26.00;95.00;;;;;;5106496;28;20229;-53
2022/08/28 05:23:23;;;;;;;;;;;26.00;94.90;;;;;;5106115;28;19950;-52
2022/08/28 05:25:49;;;;;;;;;;;26.00;94.90;;;;;;5106285;28;19919;-54
2022/08/28 05:28:16;;;;;;;;;;;26.00;94.80;;;;;;5105976;28;19942;-52
2022/08/28 05:30:42;;;;;;;;;;;25.90;94.80;;;;;;5106296;28;19947;-56
2022/08/28 05:33:10;;;;;;;;;;;26.00;94.80;;;;;;5105704;28;19987;-51
2022/08/28 05:35:38;;;;;;;;;;;26.00;94.80;;;;;;5106162;28;19954;-52
2022/08/28 05:38:04;;;;;;;;;;;26.00;94.80;;;;;;5105730;28;19915;-52
2022/08/28 05:40:31;;;;;;;;;;;25.90;94.80;;;;;;5106017;28;19912;-53
2022/08/28 05:42:57;;;;;;;;;;;25.90;94.70;;;;;;5105642;28;19904;-53
2022/08/28 05:45:23;;;;;;;;;;;26.00;94.80;;;;;;5106051;28;19970;-52
2022/08/28 05:47:51;;;;;;;;;;;25.90;94.60;;;;;;5105302;28;19916;-50
2022/08/28 05:50:18;;;;;;;;;;;25.90;94.60;;;;;;5105745;28;19912;-52
2022/08/28 05:52:44;;;;;;;;;;;25.90;94.60;;;;;;5105559;28;20115;-51
2022/08/28 05:55:11;;;;;;;;;;;25.90;94.60;;;;;;5105676;28;19915;-53
2022/08/28 05:57:37;;;;;;;;;;;25.90;94.50;;;;;;5105400;28;19915;-53
2022/08/28 06:00:04;;;;;;;;;;;25.90;94.50;;;;;;5105493;28;19983;-55
2022/08/28 06:02:31;;;;;;;;;;;25.90;94.50;;;;;;5105264;28;19915;-54
2022/08/28 06:04:57;;;;;;;;;;;25.90;94.40;;;;;;5105662;28;19920;-56
2022/08/28 06:07:23;;;;;;;;;;;25.90;94.30;;;;;;5105316;28;19912;-54
2022/08/28 06:09:49;;;;;;;;;;;25.90;94.30;;;;;;5105495;28;19919;-54
2022/08/28 06:12:15;;;;;;;;;;;25.90;94.20;;;;;;5104986;28;19908;-52
2022/08/28 06:14:41;;;;;;;;;;;25.90;94.20;;;;;;4995725;28;2553007;-53
2022/08/28 06:17:08;;;;;;;;;;;25.90;94.40;;;;;;5085806;28;19931;-50
2022/08/28 06:19:34;;;;;;;;;;;25.80;94.00;;;;;;5085695;28;20246;-53
2022/08/28 06:22:02;;;;;;;;;;;25.80;93.90;;;;;;5085907;28;19905;-49
2022/08/28 06:24:29;;;;;;;;;;;25.80;93.90;;;;;;5085756;28;19951;-53
2022/08/28 06:26:55;;;;;;;;;;;25.80;94.00;;;;;;5085443;28;19912;-49
2022/08/28 06:29:21;;;;;;;;;;;25.80;93.90;;;;;;5085295;28;19993;-54
2022/08/28 06:31:52;;;;;;;;;;;25.80;94.10;;;;;;5084982;28;20197;-55
2022/08/28 06:34:18;;;;;;;;;;;25.80;94.30;;;;;;5085399;28;19912;-54
2022/08/28 06:36:44;;;;;;;;;;;25.70;94.20;;;;;;5084206;28;19909;-57
2022/08/28 06:39:12;;;;;;;;;;;25.80;94.30;;;;;;5085337;28;19913;-55
2022/08/28 06:41:41;;;;;;;;;;;25.80;94.40;;;;;;5085183;28;19909;-52
2022/08/28 06:44:12;;;;;;;;;;;25.80;94.50;;;;;;5085210;28;20189;-53
2022/08/28 06:46:38;;;;;;;;;;;25.80;94.60;;;;;;5085099;28;20022;-53
2022/08/28 06:49:05;;;;;;;;;;;25.80;94.60;;;;;;5084942;28;19908;-48
2022/08/28 06:51:32;;;;;;;;;;;25.70;94.70;;;;;;5085100;28;20189;-57
2022/08/28 06:53:58;;;;;;;;;;;25.70;94.80;;;;;;5085064;28;19909;-54
2022/08/28 06:56:24;;;;;;;;;;;25.70;94.90;;;;;;5084923;28;19913;-54
2022/08/28 06:58:50;;;;;;;;;;;25.70;94.90;;;;;;5084811;28;20185;-51
2022/08/28 07:01:24;;;;;;;;;;;25.70;94.90;;;;;;5084982;28;19963;-53
2022/08/28 07:03:52;;;;;;;;;;;25.80;94.90;;;;;;5084632;28;19979;-52
2022/08/28 07:06:18;;;;;;;;;;;25.70;95.00;;;;;;5084893;28;19908;-54
2022/08/28 07:08:45;;;;;;;;;;;25.70;95.00;;;;;;5084957;28;19908;-54
2022/08/28 07:11:12;;;;;;;;;;;25.70;95.10;;;;;;5085082;28;19913;-58
2022/08/28 07:13:39;;;;;;;;;;;25.70;95.30;;;;;;5095706;28;20219;-54
2022/08/28 07:16:06;;;;;;;;;;;25.70;95.40;;;;;;5105539;28;19919;-51
2022/08/28 07:18:32;;;;;;;;;;;25.70;95.40;;;;;;5104893;28;19908;-55
2022/08/28 07:21:01;;;;;;;;;;;25.70;95.50;;;;;;5105369;28;20088;-53
2022/08/28 07:23:28;;;;;;;;;;;25.70;95.40;;;;;;5104903;28;19908;-54
2022/08/28 07:25:54;;;;;;;;;;;25.70;95.60;;;;;;5105087;28;20083;-60
2022/08/28 07:28:20;;;;;;;;;;;25.70;95.40;;;;;;5104914;28;19914;-53
2022/08/28 07:30:56;;;;;;;;;;;25.70;95.50;;;;;;5105076;28;19912;-52
2022/08/28 07:33:22;;;;;;;;;;;25.70;95.50;;;;;;5104654;28;19923;-54
2022/08/28 07:35:49;;;;;;;;;;;25.70;95.50;;;;;;5105105;28;20192;-53
2022/08/28 07:38:15;;;;;;;;;;;25.80;95.50;;;;;;5104604;28;19970;-52
2022/08/28 07:40:41;;;;;;;;;;;25.80;95.60;;;;;;5104950;28;19908;-55
2022/08/28 07:45:56;;;;;;;;;;;25.80;95.60;;;;;;5104925;28;19920;-56
2022/08/28 07:48:22;;;;;;;;;;;25.80;95.60;;;;;;5104507;28;19935;-55
2022/08/28 07:50:48;;;;;;;;;;;25.80;95.60;;;;;;5104878;28;20095;-53
2022/08/28 07:53:15;;;;;;;;;;;25.80;95.60;;;;;;5104404;28;19976;-54
2022/08/28 07:55:41;;;;;;;;;;;25.70;95.60;;;;;;5104773;28;19912;-53
2022/08/28 07:58:07;;;;;;;;;;;25.70;95.70;;;;;;5104395;28;19918;-56
2022/08/28 08:00:33;;;;;;;;;;;25.70;95.70;;;;;;5104627;28;19912;-54
2022/08/28 08:02:59;;;;;;;;;;;25.70;95.70;;;;;;5104413;28;20109;-55
2022/08/28 08:05:25;;;;;;;;;;;25.70;95.70;;;;;;5104645;28;19908;-54
2022/08/28 08:07:51;;;;;;;;;;;25.70;95.90;;;;;;5104138;28;19912;-56
2022/08/28 08:10:18;;;;;;;;;;;25.70;95.90;;;;;;5104756;28;19919;-56
2022/08/28 08:12:44;;;;;;;;;;;25.70;95.80;;;;;;5104070;28;19913;-52
2022/08/28 08:15:11;;;;;;;;;;;25.70;95.80;;;;;;5104313;28;19919;-51
2022/08/28 08:17:38;;;;;;;;;;;25.70;95.70;;;;;;5104395;28;19911;-53
2022/08/28 08:20:05;;;;;;;;;;;25.70;95.70;;;;;;5104335;28;19919;-52
2022/08/28 08:22:31;;;;;;;;;;;25.70;95.70;;;;;;5104223;28;20211;-50
2022/08/28 08:24:57;;;;;;;;;;;25.70;95.70;;;;;;5104374;28;20267;-56
2022/08/28 08:27:23;;;;;;;;;;;25.70;95.80;;;;;;5103975;28;20200;-53
2022/08/28 08:29:49;;;;;;;;;;;25.60;95.90;;;;;;5104174;28;19908;-53
2022/08/28 08:32:16;;;;;;;;;;;25.60;95.90;;;;;;5103924;28;19946;-52
2022/08/28 08:34:48;;;;;;;;;;;25.60;95.90;;;;;;5104307;28;19973;-53
2022/08/28 08:37:14;;;;;;;;;;;25.70;95.90;;;;;;5103904;28;19927;-54
2022/08/28 08:39:41;;;;;;;;;;;25.70;95.80;;;;;;5104282;28;19981;-62
2022/08/28 08:42:27;;;;;;;;;;;25.70;95.80;;;;;;5104270;28;20109;-52
2022/08/28 08:44:55;;;;;;;;;;;25.70;95.70;;;;;;5103710;28;20078;-54
2022/08/28 08:47:21;;;;;;;;;;;25.70;95.70;;;;;;5103405;28;19948;-54
2022/08/28 08:49:48;;;;;;;;;;;25.70;95.70;;;;;;5104042;28;19912;-58
2022/08/28 08:52:23;;;;;;;;;;;25.70;95.70;;;;;;5103960;28;19912;-57
2022/08/28 08:55:05;;;;;;;;;;;25.70;95.60;;;;;;5107113;28;20104;-57
2022/08/28 08:57:31;;;;;;;;;;;25.70;95.60;;;;;;5107786;28;19904;-54
2022/08/28 08:59:58;;;;;;;;;;;25.70;95.70;;;;;;5107595;28;19912;-52
2022/08/28 09:02:28;;;;;;;;;;;25.70;95.70;;;;;;5107664;28;19959;-58
2022/08/28 09:04:54;;;;;;;;;;;25.70;95.70;;;;;;5107660;28;19912;-53
2022/08/28 09:07:23;;;;;;;;;;;25.60;95.70;;;;;;5107354;28;19908;-54
2022/08/28 09:09:51;;;;;;;;;;;25.60;95.80;;;;;;5107357;28;20134;-51
2022/08/28 09:12:19;;;;;;;;;;;25.60;95.80;;;;;;5107318;28;19912;-53
2022/08/28 09:15:04;;;;;;;;;;;25.60;95.70;;;;;;5107372;28;19920;-54
2022/08/28 09:17:43;;;;;;;;;;;25.60;95.70;;;;;;5105498;28;20123;-51
2022/08/28 09:20:10;;;;;;;;;;;25.60;95.60;;;;;;5096007;28;19913;-62
2022/08/28 09:22:41;;;;;;;;;;;25.60;95.50;;;;;;5089482;28;19970;-52
2022/08/28 09:25:08;;;;;;;;;;;25.60;95.60;;;;;;5096813;28;19923;-52
2022/08/28 09:27:34;;;;;;;;;;;25.60;95.60;;;;;;5106499;28;19947;-54
2022/08/28 09:30:06;;;;;;;;;;;25.60;95.60;;;;;;5106819;28;20196;-52
2022/08/28 09:32:34;;;;;;;;;;;25.60;95.50;;;;;;5107016;28;19931;-52
2022/08/28 09:35:17;;;;;;;;;;;25.60;95.60;;;;;;5107061;28;19975;-53
2022/08/28 09:37:43;;;;;;;;;;;25.60;95.50;;;;;;5106872;28;19930;-54
2022/08/28 09:43:25;;;;;;;;;;;25.60;95.60;;;;;;5107125;28;19912;-53
2022/08/28 09:43:25;;;;;;;;;;;25.60;95.60;;;;;;5106605;28;19912;-54
2022/08/28 09:45:54;;;;;;;;;;;25.50;95.50;;;;;;5107033;28;19949;-53
2022/08/28 09:48:22;;;;;;;;;;;25.50;95.60;;;;;;5106589;28;19935;-54
2022/08/28 09:50:57;;;;;;;;;;;25.50;95.50;;;;;;5107087;28;19948;-51
2022/08/28 09:53:27;;;;;;;;;;;25.50;95.50;;;;;;5106453;28;19908;-54
2022/08/28 09:55:56;;;;;;;;;;;25.50;95.40;;;;;;5106875;28;20009;-53
2022/08/28 09:58:27;;;;;;;;;;;25.50;95.40;;;;;;5106102;28;19908;-53
2022/08/28 10:01:00;;;;;;;;;;;25.50;95.30;;;;;;5106455;28;19919;-54
2022/08/28 10:03:33;;;;;;;;;;;25.50;95.30;;;;;;5089665;28;19908;-56
2022/08/28 10:06:06;;;;;;;;;;;25.50;95.30;;;;;;5099272;28;19916;-53
2022/08/28 10:08:55;;;;;;;;;;;25.50;95.30;;;;;;5106276;28;19916;-55
2022/08/28 10:11:28;;;;;;;;;;;25.50;95.40;;;;;;5095542;28;19919;-53
2022/08/28 10:14:06;;;;;;;;;;;25.50;95.40;;;;;;5105991;28;19916;-56
2022/08/28 10:16:33;;;;;;;;;;;25.50;95.60;;;;;;5106307;28;19908;-54
2022/08/28 10:18:59;;;;;;;;;;;25.40;95.60;;;;;;5085677;28;19908;-54
2022/08/28 10:21:32;;;;;;;;;;;25.50;95.60;;;;;;5085671;28;20104;-54
2022/08/28 10:24:13;;;;;;;;;;;25.40;95.50;;;;;;5084236;28;19909;-53
2022/08/28 10:26:51;;;;;;;;;;;25.50;95.50;;;;;;5087242;28;20192;-53
2022/08/28 10:29:22;;;;;;;;;;;25.50;95.60;;;;;;5105785;28;19920;-58
2022/08/28 10:31:51;;;;;;;;;;;25.40;95.60;;;;;;5105954;28;19967;-56
2022/08/28 10:34:27;;;;;;;;;;;25.40;95.60;;;;;;5105600;28;20156;-54
2022/08/28 10:37:16;;;;;;;;;;;25.50;95.60;;;;;;5105728;28;19904;-53
2022/08/28 10:39:59;;;;;;;;;;;25.40;95.50;;;;;;5068169;28;19943;-55
2022/08/28 10:42:30;;;;;;;;;;;25.40;95.60;;;;;;5105481;28;19904;-55
2022/08/28 10:45:04;;;;;;;;;;;25.50;95.60;;;;;;5105762;28;19990;-56
2022/08/28 10:47:31;;;;;;;;;;;25.40;95.70;;;;;;5105344;28;19909;-55
2022/08/28 10:50:01;;;;;;;;;;;25.40;95.70;;;;;;5105337;28;20107;-55
2022/08/28 10:52:27;;;;;;;;;;;25.40;95.70;;;;;;5105264;28;19910;-54
2022/08/28 10:55:05;;;;;;;;;;;25.40;95.80;;;;;;5104351;28;19908;-55
2022/08/28 10:57:37;;;;;;;;;;;25.40;95.80;;;;;;5105295;28;19923;-54
2022/08/28 11:00:14;;;;;;;;;;;25.40;95.70;;;;;;5105421;28;19908;-60
2022/08/28 11:02:43;;;;;;;;;;;25.40;95.70;;;;;;5105064;28;19904;-54
2022/08/28 11:05:10;;;;;;;;;;;25.40;95.80;;;;;;5105439;28;20014;-58
2022/08/28 11:07:49;;;;;;;;;;;25.40;95.80;;;;;;5104974;28;19919;-53
2022/08/28 11:10:31;;;;;;;;;;;25.40;95.80;;;;;;5104014;28;19912;-58
2022/08/28 11:12:58;;;;;;;;;;;25.40;95.80;;;;;;5104937;28;19924;-55
2022/08/28 11:15:27;;;;;;;;;;;25.40;95.80;;;;;;5105308;28;19919;-55
2022/08/28 11:18:08;;;;;;;;;;;25.30;95.90;;;;;;5104588;28;20104;-57
2022/08/28 11:20:35;;;;;;;;;;;25.30;95.90;;;;;;5098703;28;19912;-55
2022/08/28 11:23:01;;;;;;;;;;;25.30;95.90;;;;;;5104847;28;19983;-55
2022/08/28 11:25:32;;;;;;;;;;;25.30;95.90;;;;;;5105216;28;19908;-53
2022/08/28 11:28:14;;;;;;;;;;;25.30;95.90;;;;;;5104559;28;19989;-57
2022/08/28 11:30:41;;;;;;;;;;;25.30;96.10;;;;;;5105018;28;20006;-53
2022/08/28 11:33:27;;;;;;;;;;;25.20;95.80;;;;;;5104468;28;19908;-55
2022/08/28 11:35:53;;;;;;;;;;;25.20;95.90;;;;;;5093042;28;19912;-53
2022/08/28 11:38:55;;;;;;;;;;;25.10;95.90;;;;;;5095470;28;19984;-54
2022/08/28 11:41:35;;;;;;;;;;;25.10;96.00;;;;;;5040819;28;20021;-53
2022/08/28 11:44:11;;;;;;;;;;;25.20;96.10;;;;;;5078982;28;19983;-56
2022/08/28 11:46:42;;;;;;;;;;;25.20;96.10;;;;;;5083127;28;19908;-55
2022/08/28 11:49:26;;;;;;;;;;;25.20;96.10;;;;;;5083117;28;19920;-61
2022/08/28 11:51:57;;;;;;;;;;;25.30;96.10;;;;;;5084263;28;19908;-54
2022/08/28 11:54:33;;;;;;;;;;;25.30;96.10;;;;;;5082835;28;19991;-54
2022/08/28 11:57:02;;;;;;;;;;;25.30;96.10;;;;;;5094710;28;19904;-53
2022/08/28 11:59:31;;;;;;;;;;;25.30;96.10;;;;;;5089189;28;19912;-53
2022/08/28 12:02:17;;;;;;;;;;;25.30;96.10;;;;;;5083510;28;19912;-62
2022/08/28 12:04:43;;;;;;;;;;;25.30;96.00;;;;;;5084196;28;19912;-52
2022/08/28 12:07:12;;;;;;;;;;;25.30;96.00;;;;;;5083959;28;19949;-52
2022/08/28 12:09:43;;;;;;;;;;;25.30;96.00;;;;;;5084197;28;19975;-53
2022/08/28 12:12:21;;;;;;;;;;;25.30;96.00;;;;;;5094022;28;20145;-53
2022/08/28 12:14:53;;;;;;;;;;;25.40;96.10;;;;;;5104547;28;19983;-55
2022/08/28 12:17:27;;;;;;;;;;;25.40;96.00;;;;;;5097841;28;19909;-50
2022/08/28 12:20:09;;;;;;;;;;;25.40;96.00;;;;;;5090061;28;19961;-52
2022/08/28 12:22:45;;;;;;;;;;;25.40;96.00;;;;;;5083849;28;19909;-52
2022/08/28 12:25:19;;;;;;;;;;;25.40;96.00;;;;;;5087585;28;19915;-51
2022/08/28 12:27:45;;;;;;;;;;;25.40;95.90;;;;;;5103895;28;19939;-52
2022/08/28 12:30:26;;;;;;;;;;;25.40;95.90;;;;;;5108387;28;19924;-52
2022/08/28 12:33:00;;;;;;;;;;;25.40;95.90;;;;;;5108105;28;19908;-55
2022/08/28 12:35:27;;;;;;;;;;;25.40;95.90;;;;;;5102169;28;19920;-56
2022/08/28 12:37:53;;;;;;;;;;;25.40;96.00;;;;;;5089317;28;19955;-51
2022/08/28 12:40:49;;;;;;;;;;;25.40;96.00;;;;;;5089883;28;19915;-52
2022/08/28 12:43:23;;;;;;;;;;;25.40;96.10;;;;;;5095550;28;20093;-53
2022/08/28 12:45:54;;;;;;;;;;;25.40;96.00;;;;;;5108018;28;20189;-50
2022/08/28 12:48:25;;;;;;;;;;;25.40;96.00;;;;;;5107669;28;19916;-51
2022/08/28 12:51:12;;;;;;;;;;;25.40;95.90;;;;;;5108131;28;19916;-52
2022/08/28 12:53:46;;;;;;;;;;;25.50;95.90;;;;;;5107829;28;20211;-51
2022/08/28 12:56:14;;;;;;;;;;;25.50;96.00;;;;;;5107803;28;19912;-54
2022/08/28 12:58:41;;;;;;;;;;;25.50;96.00;;;;;;5102531;28;19909;-52
2022/08/28 13:01:10;;;;;;;;;;;25.50;96.00;;;;;;5087526;28;19917;-53
2022/08/28 13:03:45;;;;;;;;;;;25.50;96.00;;;;;;5086945;28;19904;-53
2022/08/28 13:06:12;;;;;;;;;;;25.50;96.10;;;;;;5091596;28;19984;-55
2022/08/28 13:08:38;;;;;;;;;;;25.50;96.20;;;;;;5086878;28;20214;-52
2022/08/28 13:11:05;;;;;;;;;;;25.50;96.20;;;;;;5086794;28;19991;-52
2022/08/28 13:13:37;;;;;;;;;;;25.50;96.20;;;;;;5086783;28;19917;-50
2022/08/28 13:16:10;;;;;;;;;;;25.50;96.20;;;;;;5105926;28;19911;-55
2022/08/28 13:18:38;;;;;;;;;;;25.50;96.20;;;;;;5104251;28;19945;-56
2022/08/28 13:21:12;;;;;;;;;;;25.50;96.30;;;;;;5107575;28;19912;-53
2022/08/28 13:23:38;;;;;;;;;;;25.50;96.30;;;;;;5094165;28;20134;-52
2022/08/28 13:26:06;;;;;;;;;;;25.50;96.40;;;;;;5107480;28;19912;-52
2022/08/28 13:28:42;;;;;;;;;;;25.50;96.40;;;;;;5107056;28;19912;-52
2022/08/28 13:31:26;;;;;;;;;;;25.50;96.40;;;;;;5107134;28;20185;-51
2022/08/28 13:34:10;;;;;;;;;;;25.60;96.50;;;;;;5106786;28;19930;-52
2022/08/28 13:36:43;;;;;;;;;;;25.50;96.50;;;;;;5106905;28;19908;-51
2022/08/28 13:39:11;;;;;;;;;;;25.50;96.60;;;;;;5106687;28;20100;-54
2022/08/28 13:41:37;;;;;;;;;;;25.50;96.60;;;;;;5106838;28;19908;-55
2022/08/28 13:44:03;;;;;;;;;;;25.50;96.60;;;;;;5106761;28;19908;-51
2022/08/28 13:46:29;;;;;;;;;;;25.60;96.70;;;;;;5106685;28;19908;-52
2022/08/28 13:48:55;;;;;;;;;;;25.60;96.60;;;;;;5106403;28;19919;-53
2022/08/28 13:51:22;;;;;;;;;;;25.60;96.60;;;;;;5106647;28;19908;-54
2022/08/28 13:53:49;;;;;;;;;;;25.50;96.60;;;;;;5106663;28;19908;-53
2022/08/28 13:56:15;;;;;;;;;;;25.60;96.60;;;;;;5106498;28;19915;-51
2022/08/28 13:58:42;;;;;;;;;;;25.60;96.60;;;;;;5106076;28;19904;-54
2022/08/28 14:01:09;;;;;;;;;;;25.50;96.60;;;;;;5106787;28;19918;-54
2022/08/28 14:03:40;;;;;;;;;;;25.60;96.60;;;;;;5106324;28;20252;-53
2022/08/28 14:06:11;;;;;;;;;;;25.60;96.50;;;;;;5107028;28;19912;-58
2022/08/28 14:08:38;;;;;;;;;;;25.60;96.60;;;;;;5106225;28;20140;-51
2022/08/28 14:11:06;;;;;;;;;;;25.60;96.60;;;;;;5106602;28;19918;-54
2022/08/28 14:13:32;;;;;;;;;;;25.60;96.60;;;;;;5106088;28;20041;-51
2022/08/28 14:15:58;;;;;;;;;;;25.60;96.60;;;;;;5106147;28;20200;-51
2022/08/28 14:18:25;;;;;;;;;;;25.60;96.60;;;;;;5105989;28;19915;-56
2022/08/28 14:20:51;;;;;;;;;;;25.60;96.60;;;;;;5106425;28;19955;-51
2022/08/28 14:23:17;;;;;;;;;;;25.60;96.60;;;;;;5105897;28;19943;-58
2022/08/28 14:25:44;;;;;;;;;;;25.60;96.70;;;;;;5099487;28;19912;-51
2022/08/28 14:28:13;;;;;;;;;;;25.60;96.60;;;;;;5087271;28;20197;-52
2022/08/28 14:30:46;;;;;;;;;;;25.60;96.60;;;;;;5085810;28;19917;-56
2022/08/28 14:33:15;;;;;;;;;;;25.60;96.50;;;;;;5104142;28;19908;-52
2022/08/28 14:35:42;;;;;;;;;;;25.60;96.50;;;;;;5106081;28;20078;-53